sensor_id;sensor_type;location;lat;lon;timestamp;pressure;altitude;pressure_sealevel;temperature
64600;BMP280;6553;48.412;9.514;2023-03-13T00:01:33;71721.84;;;20.42
64600;BMP280;6553;48.412;9.514;2023-03-13T00:03:59;71725.66;;;20.43
64600;BMP280;6553;48.412;9.514;2023-03-13T00:06:29;71726.72;;;20.44
64600;BMP280;6553;48.412;9.514;2023-03-13T00:08:57;71725.66;;;20.43
64600;BMP280;6553;48.412;9.514;2023-03-13T00:11:26;71723.94;;;20.44
64600;BMP280;6553;48.412;9.514;2023-03-13T00:13:59;71725.13;;;20.43
64600;BMP280;6553;48.412;9.514;2023-03-13T00:16:26;71721.31;;;20.42
64600;BMP280;6553;48.412;9.514;2023-03-13T00:18:54;71720.78;;;20.41
64600;BMP280;6553;48.412;9.514;2023-03-13T00:21:24;71723.00;;;20.41
64600;BMP280;6553;48.412;9.514;2023-03-13T00:23:50;71722.88;;;20.43
64600;BMP280;6553;48.412;9.514;2023-03-13T00:26:19;71726.72;;;20.44
64600;BMP280;6553;48.412;9.514;2023-03-13T00:28:47;71721.31;;;20.42
64600;BMP280;6553;48.412;9.514;2023-03-13T00:31:20;71723.00;;;20.41
64600;BMP280;6553;48.412;9.514;2023-03-13T00:33:52;71725.25;;;20.40
64600;BMP280;6553;48.412;9.514;2023-03-13T00:36:22;71724.09;;;20.42
64600;BMP280;6553;48.412;9.514;2023-03-13T00:38:50;71719.69;;;20.40
64600;BMP280;6553;48.412;9.514;2023-03-13T00:41:20;71719.69;;;20.40
64600;BMP280;6553;48.412;9.514;2023-03-13T00:43:47;71725.25;;;20.40
64600;BMP280;6553;48.412;9.514;2023-03-13T00:46:17;71721.41;;;20.39
64600;BMP280;6553;48.412;9.514;2023-03-13T00:48:43;71719.16;;;20.40
64600;BMP280;6553;48.412;9.514;2023-03-13T00:51:13;71718.63;;;20.39
64600;BMP280;6553;48.412;9.514;2023-03-13T00:53:39;71724.16;;;20.39
64600;BMP280;6553;48.412;9.514;2023-03-13T00:56:07;71715.34;;;20.39
64600;BMP280;6553;48.412;9.514;2023-03-13T00:58:39;71714.81;;;20.38
64600;BMP280;6553;48.412;9.514;2023-03-13T01:01:43;71723.66;;;20.39
64600;BMP280;6553;48.412;9.514;2023-03-13T01:04:10;71718.63;;;20.39
64600;BMP280;6553;48.412;9.514;2023-03-13T01:06:39;71721.94;;;20.40
64600;BMP280;6553;48.412;9.514;2023-03-13T01:09:11;71715.34;;;20.39
64600;BMP280;6553;48.412;9.514;2023-03-13T01:11:40;71714.28;;;20.38
64600;BMP280;6553;48.412;9.514;2023-03-13T01:14:11;71714.81;;;20.38
64600;BMP280;6553;48.412;9.514;2023-03-13T01:16:39;71720.88;;;20.39
64600;BMP280;6553;48.412;9.514;2023-03-13T01:19:09;71724.16;;;20.39
64600;BMP280;6553;48.412;9.514;2023-03-13T01:21:36;71726.44;;;20.39
64600;BMP280;6553;48.412;9.514;2023-03-13T01:24:03;71722.59;;;20.38
64600;BMP280;6553;48.412;9.514;2023-03-13T01:26:29;71715.44;;;20.36
64600;BMP280;6553;48.412;9.514;2023-03-13T01:28:55;71717.59;;;20.38
64600;BMP280;6553;48.412;9.514;2023-03-13T01:31:31;71719.84;;;20.38
64600;BMP280;6553;48.412;9.514;2023-03-13T01:34:00;71716.53;;;20.37
64600;BMP280;6553;48.412;9.514;2023-03-13T01:36:28;71716.00;;;20.37
64600;BMP280;6553;48.412;9.514;2023-03-13T01:38:57;71713.22;;;20.37
64600;BMP280;6553;48.412;9.514;2023-03-13T01:41:26;71716.53;;;20.37
64600;BMP280;6553;48.412;9.514;2023-03-13T01:43:52;71719.28;;;20.37
64600;BMP280;6553;48.412;9.514;2023-03-13T01:46:24;71715.44;;;20.36
64600;BMP280;6553;48.412;9.514;2023-03-13T01:49:30;71715.44;;;20.36
64600;BMP280;6553;48.412;9.514;2023-03-13T01:52:21;71717.69;;;20.36
64600;BMP280;6553;48.412;9.514;2023-03-13T01:55:14;71715.44;;;20.36
64600;BMP280;6553;48.412;9.514;2023-03-13T01:57:49;71711.63;;;20.35
64600;BMP280;6553;48.412;9.514;2023-03-13T02:00:28;71716.63;;;20.35
64600;BMP280;6553;48.412;9.514;2023-03-13T02:03:04;71713.84;;;20.35
64600;BMP280;6553;48.412;9.514;2023-03-13T02:05:34;71714.41;;;20.35
64600;BMP280;6553;48.412;9.514;2023-03-13T02:14:07;71719.94;;;20.35
64600;BMP280;6553;48.412;9.514;2023-03-13T02:16:34;71718.75;;;20.37
64600;BMP280;6553;48.412;9.514;2023-03-13T02:19:16;71713.22;;;20.37
64600;BMP280;6553;48.412;9.514;2023-03-13T02:21:53;71717.69;;;20.36
64600;BMP280;6553;48.412;9.514;2023-03-13T02:27:26;71713.34;;;20.34
64600;BMP280;6553;48.412;9.514;2023-03-13T02:29:52;71714.41;;;20.35
64600;BMP280;6553;48.412;9.514;2023-03-13T02:32:20;71711.72;;;20.33
64600;BMP280;6553;48.412;9.514;2023-03-13T02:34:51;71709.50;;;20.33
64600;BMP280;6553;48.412;9.514;2023-03-13T02:37:19;71717.16;;;20.35
64600;BMP280;6553;48.412;9.514;2023-03-13T02:39:49;71713.34;;;20.34
64600;BMP280;6553;48.412;9.514;2023-03-13T02:42:18;71716.63;;;20.35
64600;BMP280;6553;48.412;9.514;2023-03-13T02:44:46;71715.59;;;20.34
64600;BMP280;6553;48.412;9.514;2023-03-13T02:47:24;71711.09;;;20.35
64600;BMP280;6553;48.412;9.514;2023-03-13T02:49:50;71710.56;;;20.34
64600;BMP280;6553;48.412;9.514;2023-03-13T02:52:30;71714.50;;;20.33
64600;BMP280;6553;48.412;9.514;2023-03-13T02:55:02;71710.56;;;20.34
64600;BMP280;6553;48.412;9.514;2023-03-13T02:57:28;71712.81;;;20.34
64600;BMP280;6553;48.412;9.514;2023-03-13T02:59:56;71711.84;;;20.30
64600;BMP280;6553;48.412;9.514;2023-03-13T03:02:23;71704.19;;;20.28
64600;BMP280;6553;48.412;9.514;2023-03-13T03:04:49;71706.97;;;20.28
64600;BMP280;6553;48.412;9.514;2023-03-13T03:07:15;71706.97;;;20.28
64600;BMP280;6553;48.412;9.514;2023-03-13T03:09:41;71713.97;;;20.32
64600;BMP280;6553;48.412;9.514;2023-03-13T03:12:12;71710.16;;;20.31
64600;BMP280;6553;48.412;9.514;2023-03-13T03:14:38;71712.38;;;20.31
64600;BMP280;6553;48.412;9.514;2023-03-13T03:17:04;71711.34;;;20.30
64600;BMP280;6553;48.412;9.514;2023-03-13T03:19:30;71712.38;;;20.31
64600;BMP280;6553;48.412;9.514;2023-03-13T03:21:56;71709.59;;;20.31
64600;BMP280;6553;48.412;9.514;2023-03-13T03:24:22;71714.50;;;20.33
64600;BMP280;6553;48.412;9.514;2023-03-13T03:26:47;71715.16;;;20.31
64600;BMP280;6553;48.412;9.514;2023-03-13T03:29:28;71712.91;;;20.31
64600;BMP280;6553;48.412;9.514;2023-03-13T03:31:55;71711.72;;;20.33
64600;BMP280;6553;48.412;9.514;2023-03-13T03:34:23;71713.34;;;20.34
64600;BMP280;6553;48.412;9.514;2023-03-13T03:36:49;71709.50;;;20.33
64600;BMP280;6553;48.412;9.514;2023-03-13T03:39:15;71712.28;;;20.33
64600;BMP280;6553;48.412;9.514;2023-03-13T03:41:41;71712.28;;;20.33
64600;BMP280;6553;48.412;9.514;2023-03-13T03:44:07;71716.13;;;20.34
64600;BMP280;6553;48.412;9.514;2023-03-13T03:46:45;71708.44;;;20.32
64600;BMP280;6553;48.412;9.514;2023-03-13T03:49:11;71708.97;;;20.33
64600;BMP280;6553;48.412;9.514;2023-03-13T03:51:36;71716.75;;;20.32
64600;BMP280;6553;48.412;9.514;2023-03-13T03:54:02;71712.91;;;20.31
64600;BMP280;6553;48.412;9.514;2023-03-13T03:56:30;71712.91;;;20.31
64600;BMP280;6553;48.412;9.514;2023-03-13T03:58:58;71710.16;;;20.31
64600;BMP280;6553;48.412;9.514;2023-03-13T04:01:44;71710.78;;;20.29
64600;BMP280;6553;48.412;9.514;2023-03-13T04:04:11;71716.75;;;20.32
64600;BMP280;6553;48.412;9.514;2023-03-13T04:06:40;71713.97;;;20.32
64600;BMP280;6553;48.412;9.514;2023-03-13T04:09:07;71709.06;;;20.30
64600;BMP280;6553;48.412;9.514;2023-03-13T04:11:35;71713.97;;;20.32
64600;BMP280;6553;48.412;9.514;2023-03-13T04:14:02;71711.72;;;20.33
64600;BMP280;6553;48.412;9.514;2023-03-13T04:16:28;71711.19;;;20.32
64600;BMP280;6553;48.412;9.514;2023-03-13T04:18:55;71709.06;;;20.30
64600;BMP280;6553;48.412;9.514;2023-03-13T04:21:22;71711.19;;;20.32
64600;BMP280;6553;48.412;9.514;2023-03-13T04:24:00;71711.84;;;20.30
64600;BMP280;6553;48.412;9.514;2023-03-13T04:26:26;71715.16;;;20.31
64600;BMP280;6553;48.412;9.514;2023-03-13T04:28:54;71706.31;;;20.30
64600;BMP280;6553;48.412;9.514;2023-03-13T04:31:33;71711.34;;;20.30
64600;BMP280;6553;48.412;9.514;2023-03-13T04:34:19;71710.78;;;20.29
64600;BMP280;6553;48.412;9.514;2023-03-13T04:36:59;71711.34;;;20.30
64600;BMP280;6553;48.412;9.514;2023-03-13T04:39:50;71711.34;;;20.30
64600;BMP280;6553;48.412;9.514;2023-03-13T04:42:34;71706.97;;;20.28
64600;BMP280;6553;48.412;9.514;2023-03-13T04:45:14;71713.56;;;20.29
64600;BMP280;6553;48.412;9.514;2023-03-13T04:48:09;71710.25;;;20.29
64600;BMP280;6553;48.412;9.514;2023-03-13T04:50:48;71707.47;;;20.29
64600;BMP280;6553;48.412;9.514;2023-03-13T04:53:32;71708.03;;;20.29
64600;BMP280;6553;48.412;9.514;2023-03-13T04:55:58;71706.97;;;20.28
64600;BMP280;6553;48.412;9.514;2023-03-13T04:58:43;71710.78;;;20.29
64600;BMP280;6553;48.412;9.514;2023-03-13T05:01:25;71710.25;;;20.29
64600;BMP280;6553;48.412;9.514;2023-03-13T05:04:13;71708.03;;;20.29
64600;BMP280;6553;48.412;9.514;2023-03-13T05:06:58;71705.78;;;20.30
64600;BMP280;6553;48.412;9.514;2023-03-13T05:09:30;71708.03;;;20.29
64600;BMP280;6553;48.412;9.514;2023-03-13T05:12:16;71708.03;;;20.29
64600;BMP280;6553;48.412;9.514;2023-03-13T05:15:14;71710.78;;;20.29
64600;BMP280;6553;48.412;9.514;2023-03-13T05:17:47;71705.34;;;20.27
64600;BMP280;6553;48.412;9.514;2023-03-13T05:20:37;71708.13;;;20.27
64600;BMP280;6553;48.412;9.514;2023-03-13T05:23:33;71704.41;;;20.23
64600;BMP280;6553;48.412;9.514;2023-03-13T05:26:17;71706.97;;;20.28
64600;BMP280;6553;48.412;9.514;2023-03-13T05:28:56;71710.25;;;20.29
64600;BMP280;6553;48.412;9.514;2023-03-13T05:31:31;71706.97;;;20.28
64600;BMP280;6553;48.412;9.514;2023-03-13T05:34:20;71703.25;;;20.25
64600;BMP280;6553;48.412;9.514;2023-03-13T05:37:06;71708.66;;;20.27
64600;BMP280;6553;48.412;9.514;2023-03-13T05:39:58;71708.13;;;20.27
64600;BMP280;6553;48.412;9.514;2023-03-13T05:42:44;71706.53;;;20.25
64600;BMP280;6553;48.412;9.514;2023-03-13T05:45:28;71706.44;;;20.28
64600;BMP280;6553;48.412;9.514;2023-03-13T05:48:04;71709.19;;;20.28
64600;BMP280;6553;48.412;9.514;2023-03-13T05:50:56;71708.66;;;20.27
64600;BMP280;6553;48.412;9.514;2023-03-13T05:53:47;71708.66;;;20.27
64600;BMP280;6553;48.412;9.514;2023-03-13T05:56:35;71706.44;;;20.28
64600;BMP280;6553;48.412;9.514;2023-03-13T05:59:40;71708.66;;;20.27
64600;BMP280;6553;48.412;9.514;2023-03-13T06:02:26;71698.88;;;20.23
64600;BMP280;6553;48.412;9.514;2023-03-13T06:04:52;71707.59;;;20.26
64600;BMP280;6553;48.412;9.514;2023-03-13T06:07:17;71707.59;;;20.26
64600;BMP280;6553;48.412;9.514;2023-03-13T06:09:43;71701.09;;;20.23
64600;BMP280;6553;48.412;9.514;2023-03-13T06:12:10;71703.25;;;20.25
64600;BMP280;6553;48.412;9.514;2023-03-13T06:14:37;71702.72;;;20.24
64600;BMP280;6553;48.412;9.514;2023-03-13T06:17:15;71709.19;;;20.28
64600;BMP280;6553;48.412;9.514;2023-03-13T06:19:41;71704.81;;;20.26
64600;BMP280;6553;48.412;9.514;2023-03-13T06:22:07;71707.59;;;20.26
64600;BMP280;6553;48.412;9.514;2023-03-13T06:24:33;71704.19;;;20.28
64600;BMP280;6553;48.412;9.514;2023-03-13T06:26:59;71709.75;;;20.28
64600;BMP280;6553;48.412;9.514;2023-03-13T06:29:25;71706.97;;;20.28
64600;BMP280;6553;48.412;9.514;2023-03-13T06:31:51;71703.13;;;20.27
64600;BMP280;6553;48.412;9.514;2023-03-13T06:34:17;71705.91;;;20.27
64600;BMP280;6553;48.412;9.514;2023-03-13T06:36:43;71709.19;;;20.28
64600;BMP280;6553;48.412;9.514;2023-03-13T06:39:11;71703.66;;;20.28
64600;BMP280;6553;48.412;9.514;2023-03-13T06:41:37;71709.75;;;20.28
64600;BMP280;6553;48.412;9.514;2023-03-13T06:44:03;71710.78;;;20.29
64600;BMP280;6553;48.412;9.514;2023-03-13T06:46:30;71709.59;;;20.31
64600;BMP280;6553;48.412;9.514;2023-03-13T06:48:57;71709.59;;;20.31
64600;BMP280;6553;48.412;9.514;2023-03-13T06:51:24;71714.63;;;20.30
64600;BMP280;6553;48.412;9.514;2023-03-13T06:53:51;71710.78;;;20.29
64600;BMP280;6553;48.412;9.514;2023-03-13T06:56:17;71706.44;;;20.28
64600;BMP280;6553;48.412;9.514;2023-03-13T06:58:47;71711.84;;;20.30
64600;BMP280;6553;48.412;9.514;2023-03-13T07:01:15;71713.97;;;20.32
64600;BMP280;6553;48.412;9.514;2023-03-13T07:03:42;71712.38;;;20.31
64600;BMP280;6553;48.412;9.514;2023-03-13T07:06:12;71717.94;;;20.31
64600;BMP280;6553;48.412;9.514;2023-03-13T07:08:38;71709.06;;;20.30
64600;BMP280;6553;48.412;9.514;2023-03-13T07:11:11;71713.97;;;20.32
64600;BMP280;6553;48.412;9.514;2023-03-13T07:13:38;71712.91;;;20.31
64600;BMP280;6553;48.412;9.514;2023-03-13T07:16:07;71712.38;;;20.31
64600;BMP280;6553;48.412;9.514;2023-03-13T07:18:34;71712.91;;;20.31
64600;BMP280;6553;48.412;9.514;2023-03-13T07:21:02;71711.84;;;20.30
64600;BMP280;6553;48.412;9.514;2023-03-13T07:23:33;71710.78;;;20.29
64600;BMP280;6553;48.412;9.514;2023-03-13T07:26:06;71720.16;;;20.30
64600;BMP280;6553;48.412;9.514;2023-03-13T07:28:33;71712.38;;;20.31
64600;BMP280;6553;48.412;9.514;2023-03-13T07:31:20;71706.84;;;20.31
64600;BMP280;6553;48.412;9.514;2023-03-13T07:33:46;71713.97;;;20.32
64600;BMP280;6553;48.412;9.514;2023-03-13T07:36:14;71713.47;;;20.32
64600;BMP280;6553;48.412;9.514;2023-03-13T07:38:41;71711.34;;;20.30
64600;BMP280;6553;48.412;9.514;2023-03-13T07:41:11;71713.97;;;20.32
64600;BMP280;6553;48.412;9.514;2023-03-13T07:43:38;71711.19;;;20.32
64600;BMP280;6553;48.412;9.514;2023-03-13T07:46:07;71717.81;;;20.33
64600;BMP280;6553;48.412;9.514;2023-03-13T07:48:39;71707.38;;;20.31
64600;BMP280;6553;48.412;9.514;2023-03-13T07:51:10;71716.63;;;20.35
64600;BMP280;6553;48.412;9.514;2023-03-13T07:53:36;71713.34;;;20.34
64600;BMP280;6553;48.412;9.514;2023-03-13T07:56:05;71716.13;;;20.34
64600;BMP280;6553;48.412;9.514;2023-03-13T07:58:35;71714.50;;;20.33
64600;BMP280;6553;48.412;9.514;2023-03-13T08:01:09;71706.31;;;20.30
64600;BMP280;6553;48.412;9.514;2023-03-13T08:03:35;71708.56;;;20.30
64600;BMP280;6553;48.412;9.514;2023-03-13T08:06:07;71713.97;;;20.32
64600;BMP280;6553;48.412;9.514;2023-03-13T08:08:33;71710.16;;;20.31
64600;BMP280;6553;48.412;9.514;2023-03-13T08:11:14;71712.28;;;20.33
64600;BMP280;6553;48.412;9.514;2023-03-13T08:13:40;71711.19;;;20.32
64600;BMP280;6553;48.412;9.514;2023-03-13T08:16:13;71720.59;;;20.33
64600;BMP280;6553;48.412;9.514;2023-03-13T08:18:43;71717.69;;;20.36
64600;BMP280;6553;48.412;9.514;2023-03-13T08:21:14;71717.69;;;20.36
64600;BMP280;6553;48.412;9.514;2023-03-13T08:23:41;71711.63;;;20.35
64600;BMP280;6553;48.412;9.514;2023-03-13T08:26:16;71714.41;;;20.35
64600;BMP280;6553;48.412;9.514;2023-03-13T08:28:44;71715.44;;;20.36
64600;BMP280;6553;48.412;9.514;2023-03-13T08:31:17;71716.63;;;20.35
64600;BMP280;6553;48.412;9.514;2023-03-13T08:33:45;71712.81;;;20.34
64600;BMP280;6553;48.412;9.514;2023-03-13T08:36:17;71714.28;;;20.38
64600;BMP280;6553;48.412;9.514;2023-03-13T08:38:44;71718.22;;;20.36
64600;BMP280;6553;48.412;9.514;2023-03-13T08:41:13;71715.44;;;20.36
64600;BMP280;6553;48.412;9.514;2023-03-13T08:43:39;71715.44;;;20.36
64600;BMP280;6553;48.412;9.514;2023-03-13T08:46:05;71719.28;;;20.37
64600;BMP280;6553;48.412;9.514;2023-03-13T08:48:31;71719.28;;;20.37
64600;BMP280;6553;48.412;9.514;2023-03-13T08:53:27;71714.81;;;20.38
64600;BMP280;6553;48.412;9.514;2023-03-13T08:55:53;71717.06;;;20.38
64600;BMP280;6553;48.412;9.514;2023-03-13T08:58:19;71715.34;;;20.39
64600;BMP280;6553;48.412;9.514;2023-03-13T09:00:45;71720.88;;;20.39
64600;BMP280;6553;48.412;9.514;2023-03-13T09:03:11;71721.31;;;20.42
64600;BMP280;6553;48.412;9.514;2023-03-13T09:05:37;71726.19;;;20.44
64600;BMP280;6553;48.412;9.514;2023-03-13T09:08:04;71724.63;;;20.42
64600;BMP280;6553;48.412;9.514;2023-03-13T09:10:32;71727.78;;;20.45
64600;BMP280;6553;48.412;9.514;2023-03-13T09:12:58;71733.22;;;20.48
64600;BMP280;6553;48.412;9.514;2023-03-13T09:15:24;71725.03;;;20.45
64600;BMP280;6553;48.412;9.514;2023-03-13T09:17:50;71727.78;;;20.45
64600;BMP280;6553;48.412;9.514;2023-03-13T09:20:16;71726.06;;;20.46
64600;BMP280;6553;48.412;9.514;2023-03-13T09:22:44;71728.84;;;20.46
64600;BMP280;6553;48.412;9.514;2023-03-13T09:25:11;71729.38;;;20.47
64600;BMP280;6553;48.412;9.514;2023-03-13T09:27:38;71728.19;;;20.48
64600;BMP280;6553;48.412;9.514;2023-03-13T09:30:04;71731.50;;;20.49
64600;BMP280;6553;48.412;9.514;2023-03-13T09:32:30;71728.19;;;20.48
64600;BMP280;6553;48.412;9.514;2023-03-13T09:34:56;71733.09;;;20.50
64600;BMP280;6553;48.412;9.514;2023-03-13T09:37:22;71734.69;;;20.52
64600;BMP280;6553;48.412;9.514;2023-03-13T09:39:48;71734.69;;;20.52
64600;BMP280;6553;48.412;9.514;2023-03-13T09:42:33;71739.47;;;20.57
64600;BMP280;6553;48.412;9.514;2023-03-13T09:45:12;71740.41;;;20.60
64600;BMP280;6553;48.412;9.514;2023-03-13T09:47:45;71741.59;;;20.59
64600;BMP280;6553;48.412;9.514;2023-03-13T09:50:22;71741.06;;;20.58
64600;BMP280;6553;48.412;9.514;2023-03-13T09:52:56;71737.66;;;20.60
64600;BMP280;6553;48.412;9.514;2023-03-13T09:55:30;71743.72;;;20.61
64600;BMP280;6553;48.412;9.514;2023-03-13T09:58:34;71743.72;;;20.61
64600;BMP280;6553;48.412;9.514;2023-03-13T10:01:03;71744.78;;;20.62
64600;BMP280;6553;48.412;9.514;2023-03-13T10:03:48;71744.78;;;20.62
64600;BMP280;6553;48.412;9.514;2023-03-13T10:06:19;71744.25;;;20.61
64600;BMP280;6553;48.412;9.514;2023-03-13T10:08:45;71740.94;;;20.61
64600;BMP280;6553;48.412;9.514;2023-03-13T10:11:34;71742.53;;;20.62
64600;BMP280;6553;48.412;9.514;2023-03-13T10:17:30;71738.16;;;20.61
64600;BMP280;6553;48.412;9.514;2023-03-13T10:20:23;71745.31;;;20.62
64600;BMP280;6553;48.412;9.514;2023-03-13T10:23:19;71744.25;;;20.61
64600;BMP280;6553;48.412;9.514;2023-03-13T10:25:45;71748.09;;;20.62
64600;BMP280;6553;48.412;9.514;2023-03-13T10:28:17;71745.84;;;20.63
64600;BMP280;6553;48.412;9.514;2023-03-13T10:31:03;71746.41;;;20.63
64600;BMP280;6553;48.412;9.514;2023-03-13T10:33:33;71742.41;;;20.65
64600;BMP280;6553;48.412;9.514;2023-03-13T10:36:10;71740.84;;;20.63
64600;BMP280;6553;48.412;9.514;2023-03-13T10:38:53;71746.41;;;20.63
64600;BMP280;6553;48.412;9.514;2023-03-13T10:41:35;71746.94;;;20.64
64600;BMP280;6553;48.412;9.514;2023-03-13T10:44:14;71746.41;;;20.63
64600;BMP280;6553;48.412;9.514;2023-03-13T10:46:45;71749.03;;;20.66
64600;BMP280;6553;48.412;9.514;2023-03-13T10:49:18;71746.25;;;20.66
64600;BMP280;6553;48.412;9.514;2023-03-13T10:51:55;71747.34;;;20.67
64600;BMP280;6553;48.412;9.514;2023-03-13T10:54:25;71750.09;;;20.67
64600;BMP280;6553;48.412;9.514;2023-03-13T10:57:07;71752.88;;;20.67
64600;BMP280;6553;48.412;9.514;2023-03-13T10:59:42;71747.34;;;20.67
64600;BMP280;6553;48.412;9.514;2023-03-13T11:02:27;71747.84;;;20.67
64600;BMP280;6553;48.412;9.514;2023-03-13T11:04:54;71751.16;;;20.68
64600;BMP280;6553;48.412;9.514;2023-03-13T11:07:32;71749.56;;;20.66
64600;BMP280;6553;48.412;9.514;2023-03-13T11:12:45;71751.69;;;20.68
64600;BMP280;6553;48.412;9.514;2023-03-13T11:20:33;71747.34;;;20.67
64600;BMP280;6553;48.412;9.514;2023-03-13T11:26:18;71755.66;;;20.67
64600;BMP280;6553;48.412;9.514;2023-03-13T11:31:38;71751.16;;;20.68
64600;BMP280;6553;48.412;9.514;2023-03-13T11:34:12;71750.63;;;20.67
64600;BMP280;6553;48.412;9.514;2023-03-13T11:37:12;71751.69;;;20.68
64600;BMP280;6553;48.412;9.514;2023-03-13T11:48:39;71750.63;;;20.67
64600;BMP280;6553;48.412;9.514;2023-03-13T11:57:15;71755.00;;;20.69
64600;BMP280;6553;48.412;9.514;2023-03-13T12:03:20;71754.44;;;20.68
64600;BMP280;6553;48.412;9.514;2023-03-13T12:05:54;71748.91;;;20.68
64600;BMP280;6553;48.412;9.514;2023-03-13T12:08:39;71748.38;;;20.68
64600;BMP280;6553;48.412;9.514;2023-03-13T12:11:27;71748.91;;;20.68
64600;BMP280;6553;48.412;9.514;2023-03-13T12:14:17;71746.13;;;20.68
64600;BMP280;6553;48.412;9.514;2023-03-13T12:16:53;71750.63;;;20.67
64600;BMP280;6553;48.412;9.514;2023-03-13T12:19:29;71754.44;;;20.68
64600;BMP280;6553;48.412;9.514;2023-03-13T12:22:13;71757.75;;;20.69
64600;BMP280;6553;48.412;9.514;2023-03-13T12:24:55;71752.22;;;20.69
64600;BMP280;6553;48.412;9.514;2023-03-13T12:27:35;71751.16;;;20.68
64600;BMP280;6553;48.412;9.514;2023-03-13T12:30:42;71748.38;;;20.68
64600;BMP280;6553;48.412;9.514;2023-03-13T12:33:43;71747.75;;;20.70
64600;BMP280;6553;48.412;9.514;2023-03-13T12:39:43;71757.75;;;20.69
64600;BMP280;6553;48.412;9.514;2023-03-13T12:46:33;71750.38;;;20.72
64600;BMP280;6553;48.412;9.514;2023-03-13T13:00:43;71752.63;;;20.72
64600;BMP280;6553;48.412;9.514;2023-03-13T13:06:04;71755.94;;;20.72
64600;BMP280;6553;48.412;9.514;2023-03-13T13:19:45;71759.13;;;20.75
64600;BMP280;6553;48.412;9.514;2023-03-13T13:25:28;71758.59;;;20.75
64600;BMP280;6553;48.412;9.514;2023-03-13T13:27:55;71761.38;;;20.75
64600;BMP280;6553;48.412;9.514;2023-03-13T13:35:32;71757.53;;;20.74
64600;BMP280;6553;48.412;9.514;2023-03-13T13:43:48;71760.72;;;20.77
64600;BMP280;6553;48.412;9.514;2023-03-13T13:46:30;71761.78;;;20.78
64600;BMP280;6553;48.412;9.514;2023-03-13T13:51:30;71762.84;;;20.79
64600;BMP280;6553;48.412;9.514;2023-03-13T13:57:14;71763.38;;;20.79
64600;BMP280;6553;48.412;9.514;2023-03-13T13:59:53;71768.41;;;20.79
64600;BMP280;6553;48.412;9.514;2023-03-13T14:02:25;71762.84;;;20.79
64600;BMP280;6553;48.412;9.514;2023-03-13T14:04:59;71758.47;;;20.77
64600;BMP280;6553;48.412;9.514;2023-03-13T14:13:18;71748.31;;;20.81
64600;BMP280;6553;48.412;9.514;2023-03-13T14:15:54;71762.72;;;20.81
64600;BMP280;6553;48.412;9.514;2023-03-13T14:18:22;71769.97;;;20.80
64600;BMP280;6553;48.412;9.514;2023-03-13T14:23:14;71765.50;;;20.81
64600;BMP280;6553;48.412;9.514;2023-03-13T14:25:44;71761.16;;;20.80
64600;BMP280;6553;48.412;9.514;2023-03-13T14:28:24;71764.97;;;20.81
64600;BMP280;6553;48.412;9.514;2023-03-13T14:30:54;71765.50;;;20.81
64600;BMP280;6553;48.412;9.514;2023-03-13T14:33:21;71763.25;;;20.82
64600;BMP280;6553;48.412;9.514;2023-03-13T14:35:48;71764.44;;;20.80
64600;BMP280;6553;48.412;9.514;2023-03-13T14:38:24;71770.53;;;20.81
64600;BMP280;6553;48.412;9.514;2023-03-13T14:40:53;71766.69;;;20.80
64600;BMP280;6553;48.412;9.514;2023-03-13T14:43:35;71763.91;;;20.80
64600;BMP280;6553;48.412;9.514;2023-03-13T14:46:19;71769.47;;;20.80
64600;BMP280;6553;48.412;9.514;2023-03-13T14:48:47;71763.91;;;20.80
64600;BMP280;6553;48.412;9.514;2023-03-13T14:51:23;71763.91;;;20.80
64600;BMP280;6553;48.412;9.514;2023-03-13T14:54:01;71759.00;;;20.78
64600;BMP280;6553;48.412;9.514;2023-03-13T14:56:45;71756.75;;;20.78
64600;BMP280;6553;48.412;9.514;2023-03-13T14:59:18;71761.78;;;20.78
64600;BMP280;6553;48.412;9.514;2023-03-13T15:05:04;71761.25;;;20.77
64600;BMP280;6553;48.412;9.514;2023-03-13T15:07:46;71761.78;;;20.78
64600;BMP280;6553;48.412;9.514;2023-03-13T15:10:24;71761.78;;;20.78
64600;BMP280;6553;48.412;9.514;2023-03-13T15:12:51;71761.78;;;20.78
64600;BMP280;6553;48.412;9.514;2023-03-13T15:15:18;71765.09;;;20.78
64600;BMP280;6553;48.412;9.514;2023-03-13T15:17:44;71762.84;;;20.79
64600;BMP280;6553;48.412;9.514;2023-03-13T15:20:13;71766.69;;;20.80
64600;BMP280;6553;48.412;9.514;2023-03-13T15:22:43;71763.38;;;20.79
64600;BMP280;6553;48.412;9.514;2023-03-13T15:25:19;71763.38;;;20.79
64600;BMP280;6553;48.412;9.514;2023-03-13T15:27:46;71767.75;;;20.81
64600;BMP280;6553;48.412;9.514;2023-03-13T15:30:21;71764.44;;;20.80
64600;BMP280;6553;48.412;9.514;2023-03-13T15:32:49;71764.97;;;20.81
64600;BMP280;6553;48.412;9.514;2023-03-13T15:35:27;71766.16;;;20.79
64600;BMP280;6553;48.412;9.514;2023-03-13T15:37:55;71755.72;;;20.77
64600;BMP280;6553;48.412;9.514;2023-03-13T15:40:22;71764.03;;;20.77
64600;BMP280;6553;48.412;9.514;2023-03-13T15:42:53;71765.63;;;20.79
64600;BMP280;6553;48.412;9.514;2023-03-13T15:45:19;71769.56;;;20.77
64600;BMP280;6553;48.412;9.514;2023-03-13T15:47:45;71764.53;;;20.78
64600;BMP280;6553;48.412;9.514;2023-03-13T15:50:17;71756.22;;;20.78
64600;BMP280;6553;48.412;9.514;2023-03-13T15:52:43;71758.59;;;20.75
64600;BMP280;6553;48.412;9.514;2023-03-13T15:55:10;71761.78;;;20.78
64600;BMP280;6553;48.412;9.514;2023-03-13T15:57:43;71765.09;;;20.78
64600;BMP280;6553;48.412;9.514;2023-03-13T16:00:23;71755.16;;;20.77
64600;BMP280;6553;48.412;9.514;2023-03-13T16:02:50;71755.81;;;20.75
64600;BMP280;6553;48.412;9.514;2023-03-13T16:05:16;71759.66;;;20.76
64600;BMP280;6553;48.412;9.514;2023-03-13T16:07:42;71757.53;;;20.74
64600;BMP280;6553;48.412;9.514;2023-03-13T16:10:22;71757.94;;;20.77
64600;BMP280;6553;48.412;9.514;2023-03-13T16:12:48;71755.72;;;20.77
64600;BMP280;6553;48.412;9.514;2023-03-13T16:15:13;71760.72;;;20.77
64600;BMP280;6553;48.412;9.514;2023-03-13T16:17:39;71763.50;;;20.77
64600;BMP280;6553;48.412;9.514;2023-03-13T16:20:23;71758.06;;;20.74
64600;BMP280;6553;48.412;9.514;2023-03-13T16:22:51;71751.47;;;20.73
64600;BMP280;6553;48.412;9.514;2023-03-13T16:25:17;71755.81;;;20.75
64600;BMP280;6553;48.412;9.514;2023-03-13T16:27:43;71756.34;;;20.75
64600;BMP280;6553;48.412;9.514;2023-03-13T16:30:21;71756.88;;;20.76
64600;BMP280;6553;48.412;9.514;2023-03-13T16:32:47;71761.91;;;20.75
64600;BMP280;6553;48.412;9.514;2023-03-13T16:35:15;71754.13;;;20.76
64600;BMP280;6553;48.412;9.514;2023-03-13T16:37:40;71752.09;;;20.71
64600;BMP280;6553;48.412;9.514;2023-03-13T16:40:30;71755.28;;;20.74
64600;BMP280;6553;48.412;9.514;2023-03-13T16:42:56;71754.75;;;20.74
64600;BMP280;6553;48.412;9.514;2023-03-13T16:45:22;71756.47;;;20.73